North Platte Regional Airport Lee Bird Field
KLBF : rendu visible

Aérodrome :











RETROUVEZ-NOUS SUR...

 
LOGIN :

S'inscrire | Disclaimer

   EN    FR    IT 

 









Légende :    VFR   VFR Marginal   IFR   IFR Intensif   IFR Très Intensif
Visi : 
Plafond : 
>= 8 km
>= 3000ft
5 à 8 km
1000 à 3000 ft
1500m à 5 km
500 à 1000 ft
800 à 1500m
200 à 500 ft
< 800m
< 200 ft
Symboles :   Orages  Brouillard  Fortes neiges  Fortes précipitations  Vent > 20 kt







- Altitude de l'aérodrome : 2777 ft
- Code IATA : LBF


KLBF - North Platte Regional Lee Bird Field

DERNIER METAR :
  • 222153Z AUTO 02015G21KT 10SM OVC065 17/M01 A3017 RMK AO2 SLP209 T01671006

METARs EXPIRÉS :
  • 222053Z AUTO 05015G21KT 10SM FEW075 17/00 A3017 RMK AO2 PK WND 02029/1955 SLP212 T01670000 56002
  • 221953Z AUTO 04021G28KT 10SM OVC070 16/01 A3017 RMK AO2 PK WND 03028/1953 SLP212 T01560006

TAF KLBF
Valide du 22 à 21h jusqu'au 23 à 18h UTC


222051Z 2221/2318 03015G23KT P6SM SCT080
FM230100 03008KT P6SM SCT200
FM230300 VRB03KT P6SM FEW200
FIR KZDV / Amérique du Nord



MET'MAP, la Météo Aéronautique d'un coup d'oeil ! - Copyright ORBIFLY Décembre 2007 - Disclaimer

ORBIFLY MET'MAP TEAM :

Programmation & Développement : Alexandra Zaïnal
Conception & Développement : Baudouin d'Aumeries
Co-Programmation & Développement : Marc-Olivier Méhu
Soutien technique & logistique : Manuel Goepfert

Contact : metmap@orbifly.com




SOURCES & CREDITS :

   NOAA       Earth
Advisory